Aérodrome :
LOGIN :

S'inscrire | Disclaimer

   EN    FR    IT 

 










Légende :    VFR   VFR Marginal   IFR   IFR Intensif   IFR Très Intensif
Visi : 
Plafond : 
>= 8 km
>= 3000ft
5 à 8 km
1000 à 3000 ft
1500m à 5 km
500 à 1000 ft
800 à 1500m
200 à 500 ft
< 800m
< 200 ft
Symboles :   Orages  Brouillard  Fortes neiges  Fortes précipitations  Vent > 20 kt
SIGMETs :   Divers  Orages  Givrage  Turbulence  Onde Orograph.  Cendres Volcan.







- Altitude de l'aérodrome : 82 ft
- Code IATA : ALG


DAAG - Alger Houari Boumedienne

DERNIER METAR :
  • 210230Z 14003KT 5000 FEW015 SCT200 17/17 Q1016

METARs EXPIRÉS :
  • 210200Z 00000KT 6000 FEW020 SCT200 18/17 Q1016
  • 210130Z 18002KT 6000 FEW020 18/18 Q1016
  • 210100Z 22003KT 6000 FEW020 19/18 Q1016
  • 210030Z 19004KT 6000 FEW020 18/18 Q1016
  • 210000Z 18003KT 8000 FEW020 18/18 Q1016

TAF TAF DAAG
Valide du 21 à 00h jusqu'au 22 à 00h UTC


202300Z 2100/2124 VRB02KT 8000 FEW020
PROB30
TEMPO 2100/2106 4000 BR
BECMG 2108/2111 04012KT
PROB30
TEMPO 2109/2115 FEW023TCU
BECMG 2118/2121 VRB02KT
Pas de NOTAMs connus pour ce terrain.



MET'MAP, la Météo Aéronautique d'un coup d'oeil ! - Copyright ORBIFLY Décembre 2007 - Disclaimer

ORBIFLY MET'MAP TEAM :

Programmation & Développement : Alexandra Zaïnal
Conception & Développement : Baudouin d'Aumeries
Co-Programmation & Développement : Marc-Olivier Méhu
Soutien technique & logistique : Manuel Goepfert

Contact : metmap@orbifly.com




SOURCES & CREDITS :

   NOAA